Time,TemperatureF,DewpointF,PressureIn,WindDirection,WindDirectionDegrees,WindSpeedMPH,WindSpeedGustMPH,Humidity,HourlyPrecipIn,Conditions,Clouds,dailyrainin,SoftwareType,DateUTC
2013-03-07 00:10:00,43.3,-51.1,29.96,East,90,3.7,-999.0,1,-99.99,,,0.00,Acu-Link.com,2013-03-07 06:10:00,
2013-03-07 00:25:00,43.7,-50.8,29.96,NNE,22,1.7,-999.0,1,-99.99,,,0.00,Acu-Link.com,2013-03-07 06:25:00,
2013-03-07 00:41:00,43.7,-50.8,29.96,NNE,22,1.7,-999.0,1,-99.99,,,0.00,Acu-Link.com,2013-03-07 06:41:00,
2013-03-07 00:56:00,43.9,-50.7,29.96,NE,45,2.7,-999.0,1,-99.99,,,0.00,Acu-Link.com,2013-03-07 06:56:00,
2013-03-07 01:11:00,43.5,-50.9,29.97,NE,45,2.7,-999.0,1,-99.99,,,0.00,Acu-Link.com,2013-03-07 07:11:00,
2013-03-07 01:26:00,43.5,-50.9,29.98,NE,45,0.0,-999.0,1,-99.99,,,0.00,Acu-Link.com,2013-03-07 07:26:00,
2013-03-07 01:41:00,43.0,-51.2,29.99,NNW,337,2.2,-999.0,1,-99.99,,,0.00,Acu-Link.com,2013-03-07 07:41:00,
2013-03-07 01:57:00,41.7,-52.1,29.99,NE,45,1.7,-999.0,1,-99.99,,,0.00,Acu-Link.com,2013-03-07 07:57:00,
2013-03-07 02:12:00,41.4,-52.2,29.99,NE,45,0.0,-999.0,1,-99.99,,,0.00,Acu-Link.com,2013-03-07 08:12:00,
2013-03-07 02:27:00,40.6,-52.7,29.98,NE,45,0.0,-999.0,1,-99.99,,,0.00,Acu-Link.com,2013-03-07 08:27:00,
2013-03-07 02:42:00,40.3,-52.9,29.98,NNW,337,0.0,-999.0,1,-99.99,,,0.00,Acu-Link.com,2013-03-07 08:42:00,
2013-03-07 02:58:00,39.9,-53.2,29.98,NE,45,0.0,-999.0,1,-99.99,,,0.00,Acu-Link.com,2013-03-07 08:58:00,
2013-03-07 03:13:00,39.4,-53.5,29.98,NE,45,0.0,-999.0,1,-99.99,,,0.00,Acu-Link.com,2013-03-07 09:13:00,
2013-03-07 03:28:00,38.3,-54.2,29.99,West,270,0.0,-999.0,1,-99.99,,,0.00,Acu-Link.com,2013-03-07 09:28:00,
2013-03-07 03:43:00,37.8,-54.5,29.99,ENE,67,0.0,-999.0,1,-99.99,,,0.00,Acu-Link.com,2013-03-07 09:43:00,
2013-03-07 03:59:00,36.7,-55.1,29.99,NNE,22,0.0,-999.0,1,-99.99,,,0.00,Acu-Link.com,2013-03-07 09:59:00,
2013-03-07 04:14:00,36.1,-55.5,29.98,ESE,112,2.7,-999.0,1,-99.99,,,0.00,Acu-Link.com,2013-03-07 10:14:00,
2013-03-07 04:29:00,35.4,-56.0,29.98,SSE,157,1.7,-999.0,1,-99.99,,,0.00,Acu-Link.com,2013-03-07 10:29:00,
2013-03-07 04:45:00,35.1,-56.1,29.98,West,270,0.0,-999.0,1,-99.99,,,0.00,Acu-Link.com,2013-03-07 10:45:00,
2013-03-07 05:00:00,34.7,-56.4,29.98,West,270,0.0,-999.0,1,-99.99,,,0.00,Acu-Link.com,2013-03-07 11:00:00,
2013-03-07 05:15:00,34.9,-56.3,29.98,NNW,337,2.2,-999.0,1,-99.99,,,0.00,Acu-Link.com,2013-03-07 11:15:00,
2013-03-07 05:30:00,34.7,-56.4,29.99,WNW,292,0.0,-999.0,1,-99.99,,,0.00,Acu-Link.com,2013-03-07 11:30:00,
2013-03-07 05:45:00,34.2,-56.7,30.00,WSW,247,0.0,-999.0,1,-99.99,,,0.00,Acu-Link.com,2013-03-07 11:45:00,
2013-03-07 06:01:00,34.3,-56.6,30.00,WSW,247,0.0,-999.0,1,-99.99,,,0.00,Acu-Link.com,2013-03-07 12:01:00,
2013-03-07 06:16:00,33.4,-57.2,30.00,West,270,0.0,-999.0,1,-99.99,,,0.00,Acu-Link.com,2013-03-07 12:16:00,
2013-03-07 06:47:00,33.4,-57.2,30.01,West,270,0.0,-999.0,1,-99.99,,,0.00,Acu-Link.com,2013-03-07 12:47:00,
2013-03-07 07:02:00,35.8,-55.7,30.03,WNW,292,0.0,-999.0,1,-99.99,,,0.00,Acu-Link.com,2013-03-07 13:02:00,
2013-03-07 07:17:00,40.8,-52.6,30.03,NW,315,0.0,-999.0,1,-99.99,,,0.00,Acu-Link.com,2013-03-07 13:17:00,
2013-03-07 07:33:00,46.8,-48.9,30.04,NNE,22,0.0,-999.0,1,-99.99,,,0.00,Acu-Link.com,2013-03-07 13:33:00,
2013-03-07 07:48:00,48.9,-47.6,30.04,NE,45,3.7,-999.0,1,-99.99,,,0.00,Acu-Link.com,2013-03-07 13:48:00,
2013-03-07 08:03:00,49.5,-47.3,30.05,NNE,22,4.7,-999.0,1,-99.99,,,0.00,Acu-Link.com,2013-03-07 14:03:00,
2013-03-07 08:33:00,50.4,-46.7,30.06,ESE,112,5.8,-999.0,1,-99.99,,,0.00,Acu-Link.com,2013-03-07 14:33:00,
2013-03-07 08:48:00,51.4,-46.1,30.06,SSE,157,6.8,-999.0,1,-99.99,,,0.00,Acu-Link.com,2013-03-07 14:48:00,
2013-03-07 09:03:00,52.3,-45.5,30.06,ENE,67,5.3,-999.0,1,-99.99,,,0.00,Acu-Link.com,2013-03-07 15:03:00,
2013-03-07 09:18:00,54.3,-44.3,30.06,East,90,5.3,-999.0,1,-99.99,,,0.00,Acu-Link.com,2013-03-07 15:18:00,
2013-03-07 09:33:00,55.6,-43.5,30.06,ENE,67,5.8,-999.0,1,-99.99,,,0.00,Acu-Link.com,2013-03-07 15:33:00,
2013-03-07 09:49:00,56.1,-43.2,30.06,East,90,6.8,-999.0,1,-99.99,,,0.00,Acu-Link.com,2013-03-07 15:49:00,
2013-03-07 10:04:00,59.2,-41.3,30.06,ENE,67,5.8,-999.0,1,-99.99,,,0.00,Acu-Link.com,2013-03-07 16:04:00,
2013-03-07 10:19:00,61.7,-39.8,30.06,NE,45,4.2,-999.0,1,-99.99,,,0.00,Acu-Link.com,2013-03-07 16:19:00,
2013-03-07 10:34:00,62.1,-39.6,30.06,NE,45,4.7,-999.0,1,-99.99,,,0.00,Acu-Link.com,2013-03-07 16:34:00,
2013-03-07 10:50:00,64.4,-38.2,30.06,NE,45,1.1,-999.0,1,-99.99,,,0.00,Acu-Link.com,2013-03-07 16:50:00,
2013-03-07 11:05:00,62.2,-39.5,30.06,NE,45,5.3,-999.0,1,-99.99,,,0.00,Acu-Link.com,2013-03-07 17:05:00,
2013-03-07 11:20:00,64.0,-38.4,30.05,NE,45,7.8,-999.0,1,-99.99,,,0.00,Acu-Link.com,2013-03-07 17:20:00,
2013-03-07 11:35:00,65.8,-37.3,30.05,NE,45,10.4,-999.0,1,-99.99,,,0.00,Acu-Link.com,2013-03-07 17:35:00,
2013-03-07 11:51:00,67.1,-36.6,30.04,East,90,6.3,-999.0,1,-99.99,,,0.00,Acu-Link.com,2013-03-07 17:51:00,
2013-03-07 12:06:00,66.9,-36.7,30.04,NNW,337,6.3,-999.0,1,-99.99,,,0.00,Acu-Link.com,2013-03-07 18:06:00,
2013-03-07 12:21:00,67.3,-36.4,30.03,South,180,3.2,-999.0,1,-99.99,,,0.00,Acu-Link.com,2013-03-07 18:21:00,
2013-03-07 12:36:00,68.2,-35.9,30.03,NW,315,1.7,-999.0,1,-99.99,,,0.00,Acu-Link.com,2013-03-07 18:36:00,
2013-03-07 12:52:00,68.7,-35.6,30.02,NE,45,1.7,-999.0,1,-99.99,,,0.00,Acu-Link.com,2013-03-07 18:52:00,
2013-03-07 13:07:00,69.1,-35.4,30.00,West,270,3.2,-999.0,1,-99.99,,,0.00,Acu-Link.com,2013-03-07 19:07:00,
2013-03-07 13:22:00,69.1,-35.4,30.00,NE,45,2.7,-999.0,1,-99.99,,,0.00,Acu-Link.com,2013-03-07 19:22:00,
2013-03-07 13:37:00,66.9,-36.7,29.98,North,0,4.7,-999.0,1,-99.99,,,0.00,Acu-Link.com,2013-03-07 19:37:00,
2013-03-07 13:53:00,69.4,-35.2,29.99,North,0,4.2,-999.0,1,-99.99,,,0.00,Acu-Link.com,2013-03-07 19:53:00,
2013-03-07 14:08:00,71.6,-33.9,29.98,SW,225,3.7,-999.0,1,-99.99,,,0.00,Acu-Link.com,2013-03-07 20:08:00,
2013-03-07 14:23:00,71.1,-34.2,29.97,NW,315,3.2,-999.0,1,-99.99,,,0.00,Acu-Link.com,2013-03-07 20:23:00,
2013-03-07 14:39:00,71.4,-34.0,29.97,West,270,6.8,-999.0,1,-99.99,,,0.00,Acu-Link.com,2013-03-07 20:39:00,
2013-03-07 14:54:00,69.1,-35.4,29.96,West,270,1.7,-999.0,1,-99.99,,,0.00,Acu-Link.com,2013-03-07 20:54:00,
2013-03-07 15:09:00,68.4,-35.8,29.97,WNW,292,5.8,-999.0,1,-99.99,,,0.00,Acu-Link.com,2013-03-07 21:09:00,
2013-03-07 15:24:00,70.3,-34.6,29.96,NNW,337,3.2,-999.0,1,-99.99,,,0.00,Acu-Link.com,2013-03-07 21:24:00,
2013-03-07 15:40:00,69.6,-35.1,29.95,North,0,1.1,-999.0,1,-99.99,,,0.00,Acu-Link.com,2013-03-07 21:40:00,
2013-03-07 15:55:00,72.0,-33.6,29.96,WNW,292,2.2,-999.0,1,-99.99,,,0.00,Acu-Link.com,2013-03-07 21:55:00,
2013-03-07 16:10:00,71.1,-34.2,29.95,NNW,337,2.7,-999.0,1,-99.99,,,0.00,Acu-Link.com,2013-03-07 22:10:00,
2013-03-07 16:25:00,70.5,-34.5,29.95,SSE,157,2.7,-999.0,1,-99.99,,,0.00,Acu-Link.com,2013-03-07 22:25:00,
2013-03-07 16:41:00,72.1,-33.6,29.95,SW,225,1.7,-999.0,1,-99.99,,,0.00,Acu-Link.com,2013-03-07 22:41:00,
2013-03-07 16:56:00,72.7,-33.2,29.95,SW,225,0.0,-999.0,1,-99.99,,,0.00,Acu-Link.com,2013-03-07 22:56:00,
2013-03-07 17:11:00,70.2,-34.7,29.95,NE,45,2.2,-999.0,1,-99.99,,,0.00,Acu-Link.com,2013-03-07 23:11:00,
2013-03-07 17:27:00,69.4,-35.2,29.95,NNW,337,2.2,-999.0,1,-99.99,,,0.00,Acu-Link.com,2013-03-07 23:27:00,
2013-03-07 17:42:00,67.5,-36.3,29.94,ENE,67,0.0,-999.0,1,-99.99,,,0.00,Acu-Link.com,2013-03-07 23:42:00,
2013-03-07 17:57:00,63.9,-38.5,29.95,SSW,202,3.2,-999.0,1,-99.99,,,0.00,Acu-Link.com,2013-03-07 23:57:00,
2013-03-07 18:13:00,61.2,-40.1,29.95,SW,225,1.7,-999.0,1,-99.99,,,0.00,Acu-Link.com,2013-03-08 00:13:00,
2013-03-07 18:28:00,58.6,-41.7,29.95,SSW,202,0.0,-999.0,1,-99.99,,,0.00,Acu-Link.com,2013-03-08 00:28:00,
2013-03-07 18:43:00,56.3,-43.1,29.96,West,270,0.0,-999.0,1,-99.99,,,0.00,Acu-Link.com,2013-03-08 00:43:00,
2013-03-07 18:58:00,54.1,-44.4,29.96,SSE,157,0.0,-999.0,1,-99.99,,,0.00,Acu-Link.com,2013-03-08 00:58:00,
2013-03-07 19:29:00,51.3,-46.2,29.96,WSW,247,0.0,-999.0,1,-99.99,,,0.00,Acu-Link.com,2013-03-08 01:29:00,
2013-03-07 19:44:00,50.0,-46.9,29.96,WSW,247,0.0,-999.0,1,-99.99,,,0.00,Acu-Link.com,2013-03-08 01:44:00,
2013-03-07 20:00:00,49.8,-47.1,29.95,SW,225,0.0,-999.0,1,-99.99,,,0.00,Acu-Link.com,2013-03-08 02:00:00,
2013-03-07 20:15:00,48.9,-47.6,29.95,SW,225,0.0,-999.0,1,-99.99,,,0.00,Acu-Link.com,2013-03-08 02:15:00,
2013-03-07 20:30:00,48.0,-48.2,29.95,SW,225,0.0,-999.0,1,-99.99,,,0.00,Acu-Link.com,2013-03-08 02:30:00,
2013-03-07 20:46:00,48.2,-48.1,29.96,SW,225,0.0,-999.0,1,-99.99,,,0.00,Acu-Link.com,2013-03-08 02:46:00,
2013-03-07 21:01:00,46.2,-49.3,29.97,SW,225,0.0,-999.0,1,-99.99,,,0.00,Acu-Link.com,2013-03-08 03:01:00,
2013-03-07 21:16:00,45.5,-49.7,29.96,NE,45,0.0,-999.0,1,-99.99,,,0.00,Acu-Link.com,2013-03-08 03:16:00,
2013-03-07 21:31:00,45.0,-50.0,29.97,ESE,112,0.0,-999.0,1,-99.99,,,0.00,Acu-Link.com,2013-03-08 03:31:00,
2013-03-07 21:47:00,45.0,-50.0,29.97,ESE,112,0.0,-999.0,1,-99.99,,,0.00,Acu-Link.com,2013-03-08 03:47:00,
2013-03-07 22:02:00,44.4,-50.4,29.96,ESE,112,0.0,-999.0,1,-99.99,,,0.00,Acu-Link.com,2013-03-08 04:02:00,
2013-03-07 22:17:00,43.7,-50.8,29.97,South,180,3.7,-999.0,1,-99.99,,,0.00,Acu-Link.com,2013-03-08 04:17:00,
2013-03-07 22:48:00,42.8,-51.4,29.96,ESE,112,0.0,-999.0,1,-99.99,,,0.00,Acu-Link.com,2013-03-08 04:48:00,
2013-03-07 23:03:00,43.0,-51.2,29.97,SSW,202,0.0,-999.0,1,-99.99,,,0.00,Acu-Link.com,2013-03-08 05:03:00,
2013-03-07 23:18:00,42.4,-51.6,29.97,SSW,202,0.0,-999.0,1,-99.99,,,0.00,Acu-Link.com,2013-03-08 05:18:00,
2013-03-07 23:34:00,42.3,-51.7,29.97,SSW,202,0.0,-999.0,1,-99.99,,,0.00,Acu-Link.com,2013-03-08 05:34:00,
2013-03-07 23:49:00,42.3,-51.7,29.95,SSW,202,0.0,-999.0,1,-99.99,,,0.00,Acu-Link.com,2013-03-08 05:49:00,